Aeroporto :
LOGIN :

Iscrizione | Disclaimer

   EN    FR    IT 

 










Sommario :    VFR   VFR Marginale   IFR   IFR Intensivo   IFR Molto Intensivo
Visibilità : 
Base nubi : 
>= 8 km
>= 3000ft
5 / 8 km
1000 / 3000 ft
1500m / 5 km
500 / 1000 ft
800 / 1500m
200 / 500 ft
< 800m
< 200 ft
Simboli :   Temporali  Nebbia  Neve Forte  Precipitazioni Forti  Vento > 20 kt
SIGMETs :   Varie  Temporali  Ghiacco  Turbolenza  Onda orograficha  Ceneri Vulcaniche







- Altitudine del aeroporto : 147 ft
- Codice IATA : DUS


EDDL - Düsseldorf Int.

ULTIMO METAR :
  • 170020Z 16006KT 130V200 CAVOK 07/02 Q1024 NOSIG

METARs OBSOLETI :
  • 162350Z 15008KT CAVOK 03/01 Q1025 NOSIG
  • 162320Z VRB02KT CAVOK 03/01 Q1025 NOSIG
  • 162250Z VRB02KT CAVOK 03/01 Q1025 NOSIG
  • 162220Z VRB02KT CAVOK 04/01 Q1025 NOSIG
  • 162150Z 12005KT CAVOK 04/01 Q1025 NOSIG
  • 162120Z 11003KT 030V130 CAVOK 05/02 Q1025 NOSIG

TAF TAF EDDL
Valido dal 17 a 00 ore il 18 a 06 ore UTC


162300Z 1700/1806 15005KT CAVOK
BECMG 1703/1706 16011KT
TEMPO 1718/1802 16006KT
Nessun NOTAM noto per questo aeroporto.



MetMap, La meteo Aeronautica in un colpo d'occhio ! - Copyright ORBIFLY Dicembre 2007 - Disclaimer

ORBIFLY MET'MAP TEAM :

Programmazione e sviluppo : Alexandra Zaïnal
Concezione e sviluppo : Baudouin d'Aumeries
Co-Programmazione e sviluppo : Marc-Olivier Méhu
Supporto tecnico e logistico : Manuel Goepfert
Aiuto per la traduzione : Arnaldo La Scala

Contatto : metmap@orbifly.com




FONTI E CREDITI :

   NOAA